Time;durP1;ratioP1;P1;durP2;ratioP2;P2;SDS_P1;SDS_P2;PMS_P1;PMS_P2;Temp;Humidity;BMP_temperature;BMP_pressure;BME280_temperature;BME280_humidity;BME280_pressure;Samples;Min_cycle;Max_cycle;Signal;HPM_P1;HPM_P2
2021/04/23 00:02:22;;;;;;;5.70;3.75;;;8.30;99.90;;;;;;5074145;27;20263;-77
2021/04/23 00:04:48;;;;;;;4.88;3.65;;;8.30;99.90;;;;;;5060817;27;20661;-77
2021/04/23 00:07:15;;;;;;;8.57;4.70;;;8.30;99.90;;;;;;5116143;27;20268;-77
2021/04/23 00:09:41;;;;;;;11.25;4.55;;;8.20;99.90;;;;;;5054898;27;20320;-77
2021/04/23 00:12:12;;;;;;;7.20;4.10;;;8.20;99.90;;;;;;5090279;27;20211;-77
2021/04/23 00:14:41;;;;;;;6.17;3.83;;;8.20;99.90;;;;;;5095462;27;20220;-76
2021/04/23 00:17:07;;;;;;;11.02;5.10;;;8.20;99.90;;;;;;5046958;27;20492;-77
2021/04/23 00:19:35;;;;;;;10.43;4.45;;;8.30;99.90;;;;;;5114304;27;20215;-77
2021/04/23 00:22:01;;;;;;;8.43;4.20;;;8.30;99.90;;;;;;5068886;27;20222;-77
2021/04/23 00:24:27;;;;;;;8.52;4.32;;;8.30;99.90;;;;;;5075942;27;20247;-77
2021/04/23 00:26:54;;;;;;;7.43;4.10;;;8.30;99.90;;;;;;5050506;27;20257;-77
2021/04/23 00:29:21;;;;;;;8.85;3.75;;;8.40;99.90;;;;;;5115423;27;21010;-77
2021/04/23 00:34:36;;;;;;;12.87;4.33;;;8.50;99.90;;;;;;5071321;27;20243;-77
2021/04/23 00:37:04;;;;;;;6.77;4.07;;;8.50;99.90;;;;;;5112952;27;20788;-77
2021/04/23 00:39:30;;;;;;;8.38;4.38;;;8.50;99.90;;;;;;5047327;28;20476;-77
2021/04/23 00:41:56;;;;;;;7.70;4.80;;;8.50;99.90;;;;;;5098191;28;20194;-77
2021/04/23 00:44:22;;;;;;;10.07;4.73;;;8.50;99.90;;;;;;5083807;28;20894;-77
2021/04/23 00:46:48;;;;;;;9.32;4.68;;;8.50;99.90;;;;;;5060510;28;20540;-76
2021/04/23 00:49:14;;;;;;;10.88;4.70;;;8.50;99.90;;;;;;5115516;28;20208;-75
2021/04/23 00:51:44;;;;;;;6.55;4.20;;;8.50;99.90;;;;;;5053870;28;20772;-75
2021/04/23 00:54:11;;;;;;;4.93;3.97;;;8.50;99.90;;;;;;5087369;28;20222;-76
2021/04/23 00:56:39;;;;;;;5.00;3.93;;;8.40;99.90;;;;;;5094573;28;20638;-77
2021/04/23 00:59:08;;;;;;;7.50;4.70;;;8.40;99.90;;;;;;5047997;28;20445;-77
2021/04/23 01:01:38;;;;;;;8.15;5.00;;;8.40;99.90;;;;;;5033048;28;20551;-77
2021/04/23 01:04:05;;;;;;;7.88;4.78;;;8.40;99.90;;;;;;5091943;28;20270;-77
2021/04/23 01:06:35;;;;;;;10.83;4.67;;;8.30;99.90;;;;;;5090064;28;20219;-77
2021/04/23 01:09:08;;;;;;;5.65;4.07;;;8.30;99.90;;;;;;5050778;27;20509;-77
2021/04/23 01:11:34;;;;;;;12.52;3.83;;;8.30;99.90;;;;;;5033116;28;20636;-77
2021/04/23 01:14:00;;;;;;;11.15;4.93;;;8.30;99.90;;;;;;5094698;28;20225;-77
2021/04/23 01:16:26;;;;;;;10.00;4.03;;;8.20;99.90;;;;;;5086485;28;20218;-77
2021/04/23 01:18:55;;;;;;;10.52;4.85;;;8.20;99.90;;;;;;5056910;28;20913;-78
2021/04/23 01:21:24;;;;;;;10.65;5.35;;;8.10;99.90;;;;;;5114941;28;20562;-78
2021/04/23 01:23:52;;;;;;;11.38;4.35;;;8.00;99.90;;;;;;5060100;28;20642;-78
2021/04/23 01:26:21;;;;;;;7.10;4.18;;;8.00;99.90;;;;;;5081181;28;20183;-78
2021/04/23 01:28:49;;;;;;;10.35;4.72;;;7.80;99.90;;;;;;5102305;27;20238;-78
2021/04/23 01:31:17;;;;;;;8.68;4.90;;;7.80;99.90;;;;;;5050252;27;20550;-77
2021/04/23 01:33:45;;;;;;;20.55;5.43;;;7.70;99.90;;;;;;5110110;27;20221;-76
2021/04/23 01:36:12;;;;;;;13.05;6.63;;;7.60;99.90;;;;;;5079092;27;20194;-77
2021/04/23 01:38:42;;;;;;;15.50;5.28;;;7.60;99.90;;;;;;5070437;27;20190;-76
2021/04/23 01:41:08;;;;;;;8.95;4.65;;;7.50;99.90;;;;;;5118700;27;20646;-76
2021/04/23 01:43:35;;;;;;;14.05;5.53;;;7.50;99.90;;;;;;5052555;27;20189;-77
2021/04/23 01:46:03;;;;;;;12.35;5.18;;;7.50;99.90;;;;;;5096834;27;20663;-77
2021/04/23 01:48:29;;;;;;;9.85;4.82;;;7.60;99.90;;;;;;5091928;27;20226;-76
2021/04/23 01:50:55;;;;;;;8.68;5.05;;;7.60;99.90;;;;;;5058066;27;20598;-77
2021/04/23 01:53:22;;;;;;;6.03;4.80;;;7.60;99.90;;;;;;5118660;27;20222;-78
2021/04/23 01:55:49;;;;;;;9.00;4.97;;;7.60;99.90;;;;;;5061945;27;20514;-77
2021/04/23 01:58:15;;;;;;;14.25;5.65;;;7.60;99.90;;;;;;5087012;27;20222;-77
2021/04/23 02:00:43;;;;;;;13.23;6.07;;;7.60;99.90;;;;;;5049229;27;20227;-77
2021/04/23 02:03:12;;;;;;;10.05;5.60;;;7.70;99.90;;;;;;5115481;27;20183;-77
2021/04/23 02:05:40;;;;;;;12.05;5.78;;;7.70;99.90;;;;;;5054703;27;20190;-77
2021/04/23 02:08:08;;;;;;;8.90;6.18;;;7.80;99.90;;;;;;5093208;27;20230;-76
2021/04/23 02:10:38;;;;;;;14.97;5.57;;;7.80;99.90;;;;;;5094614;27;20772;-77
2021/04/23 02:13:05;;;;;;;16.88;6.90;;;7.90;99.90;;;;;;5051521;27;20479;-77
2021/04/23 02:15:32;;;;;;;10.60;5.03;;;7.90;99.90;;;;;;5033459;27;20211;-77
2021/04/23 02:18:00;;;;;;;8.68;5.63;;;7.90;99.90;;;;;;5098817;27;20218;-77
2021/04/23 02:20:29;;;;;;;9.00;4.93;;;8.00;99.90;;;;;;5031604;28;20327;-77
2021/04/23 02:22:57;;;;;;;8.40;5.10;;;8.00;99.90;;;;;;5110159;27;20215;-77
2021/04/23 02:25:23;;;;;;;14.27;6.00;;;8.00;99.90;;;;;;5049271;27;20473;-77
2021/04/23 02:27:50;;;;;;;12.05;5.70;;;8.00;99.90;;;;;;5070295;27;20240;-78
2021/04/23 02:30:22;;;;;;;11.63;5.65;;;8.10;99.90;;;;;;5085558;27;20222;-78
2021/04/23 02:32:48;;;;;;;16.35;5.82;;;8.10;99.90;;;;;;5104471;27;20188;-77
2021/04/23 02:35:15;;;;;;;10.90;5.20;;;8.10;99.90;;;;;;5049324;27;20187;-77
2021/04/23 02:37:42;;;;;;;7.57;5.50;;;8.20;99.90;;;;;;5110382;27;20191;-77
2021/04/23 02:40:11;;;;;;;8.67;5.43;;;8.20;99.90;;;;;;5074805;27;20423;-77
2021/04/23 02:42:37;;;;;;;11.10;6.03;;;8.20;99.90;;;;;;5070055;27;20548;-78
2021/04/23 02:45:05;;;;;;;10.03;4.80;;;8.20;99.90;;;;;;5115524;27;20484;-77
2021/04/23 02:47:32;;;;;;;13.13;5.85;;;8.10;99.90;;;;;;5049255;27;20573;-76
2021/04/23 02:49:58;;;;;;;10.32;5.50;;;8.10;99.90;;;;;;5098168;27;20218;-77
2021/04/23 02:52:24;;;;;;;7.00;5.07;;;8.10;99.90;;;;;;5087518;27;20215;-76
2021/04/23 02:54:51;;;;;;;24.60;6.22;;;8.10;99.90;;;;;;5060978;27;20214;-77
2021/04/23 02:57:17;;;;;;;10.10;6.63;;;8.10;99.90;;;;;;5117929;27;20610;-77
2021/04/23 02:59:44;;;;;;;9.50;5.30;;;8.10;99.90;;;;;;5056530;27;20226;-76
2021/04/23 03:02:11;;;;;;;9.63;4.95;;;8.10;99.90;;;;;;5065446;27;20243;-76
2021/04/23 03:04:38;;;;;;;8.95;5.38;;;8.10;99.90;;;;;;5070137;27;20191;-76
2021/04/23 03:07:04;;;;;;;9.13;4.13;;;8.10;99.90;;;;;;5115763;27;20236;-77
2021/04/23 03:09:30;;;;;;;12.18;5.93;;;8.10;99.90;;;;;;5048988;27;20511;-77
2021/04/23 03:11:57;;;;;;;8.05;4.80;;;8.10;99.90;;;;;;5099205;27;20269;-77
2021/04/23 03:14:24;;;;;;;9.48;5.07;;;8.10;99.90;;;;;;5085896;27;20547;-77
2021/04/23 03:16:50;;;;;;;9.50;5.80;;;8.10;99.90;;;;;;5060825;27;20183;-77
2021/04/23 03:19:19;;;;;;;11.30;5.93;;;8.10;99.90;;;;;;5117202;27;20354;-77
2021/04/23 03:21:47;;;;;;;10.02;7.63;;;8.10;99.90;;;;;;5058499;27;20207;-77
2021/04/23 03:24:14;;;;;;;9.82;5.15;;;8.10;99.90;;;;;;5087105;27;20277;-76
2021/04/23 03:26:41;;;;;;;15.18;5.30;;;8.10;99.90;;;;;;5056538;27;20194;-76
2021/04/23 03:29:09;;;;;;;13.02;6.47;;;8.10;99.90;;;;;;5120287;27;20254;-77
2021/04/23 03:31:36;;;;;;;7.93;4.82;;;8.00;99.90;;;;;;5050906;27;20634;-76
2021/04/23 03:34:03;;;;;;;8.20;4.43;;;8.00;99.90;;;;;;5094854;27;20186;-76
2021/04/23 03:36:29;;;;;;;11.30;5.15;;;8.00;99.90;;;;;;5089976;27;20219;-76
2021/04/23 03:38:57;;;;;;;9.15;5.03;;;7.90;99.90;;;;;;5056056;27;20226;-76
2021/04/23 03:41:25;;;;;;;10.15;5.50;;;7.90;99.90;;;;;;5116537;27;20260;-77
2021/04/23 03:43:52;;;;;;;10.25;5.18;;;7.90;99.90;;;;;;5062503;27;20183;-76
2021/04/23 03:46:18;;;;;;;19.48;5.85;;;7.90;99.90;;;;;;5082657;27;20740;-77
2021/04/23 03:48:48;;;;;;;13.88;5.50;;;7.90;99.90;;;;;;5100452;27;20184;-76
2021/04/23 03:51:16;;;;;;;10.98;5.50;;;7.90;99.90;;;;;;5047759;27;20269;-76
2021/04/23 03:53:43;;;;;;;9.63;5.90;;;7.80;99.90;;;;;;5108951;27;20215;-76
2021/04/23 03:56:10;;;;;;;11.68;4.85;;;7.90;99.90;;;;;;5074948;27;20270;-76
2021/04/23 03:58:39;;;;;;;8.93;5.38;;;7.90;99.90;;;;;;5069743;27;20195;-76
2021/04/23 04:01:08;;;;;;;9.75;5.18;;;7.90;99.90;;;;;;5043962;27;20223;-76
2021/04/23 04:03:36;;;;;;;10.13;5.95;;;7.90;99.90;;;;;;5033601;27;20183;-76
2021/04/23 04:06:02;;;;;;;12.18;6.20;;;7.90;99.90;;;;;;5094055;27;20645;-76
2021/04/23 04:08:28;;;;;;;11.90;5.18;;;7.80;99.90;;;;;;5088652;27;20191;-76
2021/04/23 04:10:55;;;;;;;12.48;5.40;;;7.90;99.90;;;;;;5056549;27;20254;-77
2021/04/23 04:13:22;;;;;;;11.88;6.32;;;7.90;99.90;;;;;;5115880;27;20546;-76
2021/04/23 04:15:49;;;;;;;12.02;6.20;;;7.90;99.90;;;;;;5060294;27;20662;-77
2021/04/23 04:18:16;;;;;;;11.10;5.65;;;7.90;99.90;;;;;;5084468;27;20277;-77
2021/04/23 04:20:44;;;;;;;9.02;4.80;;;7.90;99.90;;;;;;5098573;27;20190;-77
2021/04/23 04:23:14;;;;;;;9.43;6.03;;;7.90;99.90;;;;;;5047763;27;20247;-76
2021/04/23 04:25:40;;;;;;;10.43;6.03;;;7.90;99.90;;;;;;5109629;27;20194;-76
2021/04/23 04:28:07;;;;;;;14.43;5.93;;;7.90;99.90;;;;;;5072640;27;20282;-77
2021/04/23 04:30:35;;;;;;;8.60;5.90;;;7.90;99.90;;;;;;5071192;27;20288;-76
2021/04/23 04:33:01;;;;;;;11.52;6.47;;;8.00;99.90;;;;;;5111353;27;20477;-76
2021/04/23 04:35:28;;;;;;;12.18;6.72;;;8.00;99.90;;;;;;5047581;28;20219;-77
2021/04/23 04:37:55;;;;;;;11.27;6.55;;;8.00;99.90;;;;;;5099063;27;20211;-77
2021/04/23 04:40:23;;;;;;;17.45;6.38;;;8.00;99.90;;;;;;5083674;28;20219;-77
2021/04/23 04:42:50;;;;;;;7.70;6.40;;;8.10;99.90;;;;;;5059627;28;20259;-77
2021/04/23 04:45:18;;;;;;;12.13;6.28;;;8.10;99.90;;;;;;5115468;28;20472;-77
2021/04/23 04:47:46;;;;;;;14.82;6.43;;;8.10;99.90;;;;;;5056769;28;20266;-77
2021/04/23 04:50:16;;;;;;;20.60;6.33;;;8.10;99.90;;;;;;5086404;28;20222;-77
2021/04/23 04:52:42;;;;;;;10.75;5.80;;;8.10;99.90;;;;;;5097817;28;20468;-77
2021/04/23 04:55:10;;;;;;;10.73;5.65;;;8.10;99.90;;;;;;5047301;28;20194;-77
2021/04/23 04:57:37;;;;;;;14.98;5.88;;;8.10;99.90;;;;;;5112155;27;20278;-77
2021/04/23 05:00:06;;;;;;;10.63;5.40;;;8.10;99.90;;;;;;5051810;28;20230;-77
2021/04/23 05:02:32;;;;;;;13.70;5.93;;;8.10;99.90;;;;;;5082294;28;20255;-76
2021/04/23 05:04:59;;;;;;;8.93;6.00;;;8.10;99.90;;;;;;5055787;27;20472;-76
2021/04/23 05:07:25;;;;;;;10.60;5.90;;;8.20;99.90;;;;;;5119364;27;20532;-76
2021/04/23 05:09:51;;;;;;;10.65;5.97;;;8.20;99.90;;;;;;5064661;27;20472;-76
2021/04/23 05:12:17;;;;;;;11.40;6.07;;;8.20;99.90;;;;;;5086172;27;20549;-76
2021/04/23 05:14:43;;;;;;;19.92;6.63;;;8.30;99.90;;;;;;5102639;27;20214;-76
2021/04/23 05:17:09;;;;;;;11.83;6.10;;;8.30;99.90;;;;;;5050765;27;20277;-76
2021/04/23 05:19:35;;;;;;;11.77;5.90;;;8.40;99.90;;;;;;5116033;27;20544;-76
2021/04/23 05:22:02;;;;;;;7.30;5.05;;;8.40;99.90;;;;;;5072658;27;20278;-78
2021/04/23 05:24:29;;;;;;;8.85;5.65;;;8.30;99.90;;;;;;5077618;27;20545;-78
2021/04/23 05:26:55;;;;;;;9.27;5.82;;;8.30;99.90;;;;;;5053495;27;20610;-77
2021/04/23 05:29:21;;;;;;;12.57;5.35;;;8.40;99.90;;;;;;5118961;27;20210;-77
2021/04/23 05:31:47;;;;;;;9.35;5.70;;;8.50;99.90;;;;;;5061786;27;20274;-77
2021/04/23 05:34:13;;;;;;;9.63;5.47;;;8.50;99.90;;;;;;5088794;27;20268;-76
2021/04/23 05:36:39;;;;;;;10.67;5.93;;;8.60;99.90;;;;;;5099049;27;20187;-76
2021/04/23 05:39:06;;;;;;;15.80;6.40;;;8.70;99.90;;;;;;5051203;27;20481;-76
2021/04/23 05:41:32;;;;;;;11.50;6.00;;;8.80;99.90;;;;;;5118083;27;20528;-76
2021/04/23 05:43:58;;;;;;;11.47;6.20;;;8.90;99.90;;;;;;5069662;27;20472;-76
2021/04/23 05:46:24;;;;;;;10.07;5.23;;;9.00;99.90;;;;;;5080488;27;20476;-76
2021/04/23 05:48:50;;;;;;;11.47;5.80;;;9.00;99.90;;;;;;5106865;27;20468;-77
2021/04/23 05:51:16;;;;;;;13.10;5.45;;;9.00;99.90;;;;;;5042734;27;20536;-76
2021/04/23 05:53:43;;;;;;;9.80;5.32;;;8.90;99.90;;;;;;5034222;27;20226;-76
2021/04/23 05:56:10;;;;;;;9.97;6.00;;;8.90;99.90;;;;;;5061553;27;20289;-76
2021/04/23 05:58:36;;;;;;;11.18;5.75;;;9.00;99.90;;;;;;5032097;27;20848;-76
2021/04/23 06:01:03;;;;;;;11.37;6.23;;;9.10;99.90;;;;;;5070812;27;20246;-76
2021/04/23 06:03:29;;;;;;;14.60;5.20;;;9.20;99.90;;;;;;5034552;27;20486;-76
2021/04/23 06:05:55;;;;;;;9.63;5.65;;;9.30;99.90;;;;;;5032937;27;20485;-77
2021/04/23 06:08:21;;;;;;;8.43;4.87;;;9.40;99.90;;;;;;5032836;27;20214;-77
2021/04/23 06:10:49;;;;;;;12.68;5.82;;;9.50;99.90;;;;;;5032702;27;20828;-76
2021/04/23 06:13:16;;;;;;;8.02;4.85;;;9.60;99.90;;;;;;5041924;27;20183;-76
2021/04/23 06:15:43;;;;;;;8.80;4.90;;;9.80;99.90;;;;;;5108675;27;20319;-76
2021/04/23 06:18:11;;;;;;;9.30;4.77;;;9.90;99.90;;;;;;5076978;27;20871;-77
2021/04/23 06:20:38;;;;;;;9.17;5.77;;;10.10;99.90;;;;;;5129324;27;20448;-76
2021/04/23 06:23:05;;;;;;;10.83;5.30;;;10.20;99.90;;;;;;5050875;27;20935;-76
2021/04/23 06:25:31;;;;;;;9.13;4.87;;;10.30;99.90;;;;;;5117566;27;20460;-76
2021/04/23 06:27:57;;;;;;;8.57;6.30;;;10.40;99.90;;;;;;5039844;27;20896;-78
2021/04/23 06:30:27;;;;;;;8.60;5.03;;;10.40;99.90;;;;;;5041481;27;20829;-78
2021/04/23 06:32:54;;;;;;;14.80;6.07;;;10.40;99.90;;;;;;5031625;27;20477;-78
2021/04/23 06:35:21;;;;;;;7.20;4.73;;;10.40;99.90;;;;;;5060678;27;20839;-76
2021/04/23 06:37:48;;;;;;;11.60;5.20;;;10.40;99.90;;;;;;5046320;27;20450;-77
2021/04/23 06:40:16;;;;;;;9.10;5.23;;;10.50;99.90;;;;;;5046679;27;20460;-78
2021/04/23 06:42:42;;;;;;;8.33;5.10;;;10.60;99.90;;;;;;5048993;27;20474;-82
2021/04/23 06:45:12;;;;;;;10.10;4.40;;;10.70;99.90;;;;;;5062222;27;20536;-81
2021/04/23 06:47:38;;;;;;;9.07;4.70;;;10.90;99.90;;;;;;5049647;27;20481;-78
2021/04/23 06:50:07;;;;;;;8.10;4.90;;;11.10;99.90;;;;;;5042276;27;20508;-80
2021/04/23 06:52:34;;;;;;;8.70;5.40;;;11.10;99.90;;;;;;5062225;27;20543;-81
2021/04/23 06:55:01;;;;;;;12.10;5.23;;;11.10;99.90;;;;;;5035623;27;20540;-80
2021/04/23 06:57:27;;;;;;;8.10;4.40;;;11.00;99.90;;;;;;5036649;27;20481;-86
2021/04/23 06:59:53;;;;;;;5.90;3.63;;;10.80;99.90;;;;;;5032259;27;20420;-80
2021/04/23 07:02:19;;;;;;;12.20;4.70;;;10.70;99.90;;;;;;5033802;28;20572;-80
2021/04/23 07:04:54;;;;;;;15.80;4.80;;;10.80;99.90;;;;;;5034221;27;20442;-80
2021/04/23 07:07:20;;;;;;;10.47;4.27;;;10.70;99.90;;;;;;5087882;27;20453;-80
2021/04/23 07:09:48;;;;;;;9.23;4.40;;;10.70;99.90;;;;;;5101358;27;20572;-80
2021/04/23 07:12:14;;;;;;;13.30;3.80;;;10.80;99.90;;;;;;5080777;27;20548;-80
2021/04/23 07:14:41;;;;;;;8.33;3.87;;;10.80;99.90;;;;;;5134237;27;20482;-80
2021/04/23 07:17:10;;;;;;;7.30;4.30;;;10.80;99.90;;;;;;5134807;27;20844;-80
2021/04/23 07:19:36;;;;;;;9.60;4.03;;;10.60;99.90;;;;;;5065046;27;20544;-80
2021/04/23 07:22:04;;;;;;;8.10;4.17;;;10.70;99.90;;;;;;5030730;28;20481;-80
2021/04/23 07:24:32;;;;;;;13.83;4.63;;;10.80;99.90;;;;;;5031085;28;20457;-80
2021/04/23 07:26:59;;;;;;;8.37;5.20;;;10.80;99.90;;;;;;5030191;28;20997;-81
2021/04/23 07:29:25;;;;;;;6.60;3.80;;;10.90;99.90;;;;;;5104540;27;20555;-80
2021/04/23 07:31:51;;;;;;;9.30;3.93;;;10.90;99.90;;;;;;5134767;27;20963;-80
2021/04/23 07:34:17;;;;;;;6.47;3.67;;;10.90;99.90;;;;;;5134539;27;20448;-80
2021/04/23 07:36:46;;;;;;;6.37;4.10;;;10.80;99.90;;;;;;5075148;27;20948;-80
2021/04/23 07:39:14;;;;;;;7.27;3.90;;;10.80;99.90;;;;;;5030983;28;20488;-79
2021/04/23 07:41:40;;;;;;;10.43;3.90;;;11.10;99.90;;;;;;5030735;28;20984;-80
2021/04/23 07:44:06;;;;;;;4.27;2.70;;;11.40;99.90;;;;;;5030708;28;20477;-80
2021/04/23 07:46:32;;;;;;;8.80;3.43;;;11.60;99.90;;;;;;5036968;27;20549;-88
2021/04/23 07:48:59;;;;;;;8.30;2.73;;;11.80;99.90;;;;;;5039614;27;20477;-87
2021/04/23 07:51:25;;;;;;;4.17;3.03;;;11.90;99.90;;;;;;5058862;27;20495;-87
2021/04/23 07:53:51;;;;;;;8.73;3.50;;;11.80;99.90;;;;;;5091381;27;20437;-80
2021/04/23 07:56:18;;;;;;;6.47;3.93;;;11.60;99.90;;;;;;5081712;27;20792;-80
2021/04/23 07:58:44;;;;;;;5.47;3.07;;;11.50;99.90;;;;;;5134482;27;20475;-81
2021/04/23 08:01:10;;;;;;;9.93;3.83;;;11.50;99.90;;;;;;5133883;27;20510;-80
2021/04/23 08:03:36;;;;;;;9.80;3.93;;;11.70;99.90;;;;;;5134161;27;21053;-79
2021/04/23 08:06:03;;;;;;;9.60;3.47;;;11.80;99.90;;;;;;5134224;27;20431;-80
2021/04/23 08:08:29;;;;;;;6.00;3.47;;;12.10;99.90;;;;;;5134188;27;21006;-80
2021/04/23 08:10:55;;;;;;;8.83;4.03;;;12.40;99.90;;;;;;5134011;27;20476;-80
2021/04/23 08:13:22;;;;;;;5.17;3.30;;;12.60;99.90;;;;;;5133998;27;20487;-81
2021/04/23 08:15:50;;;;;;;6.30;3.40;;;12.70;99.90;;;;;;5133746;27;20510;-80
2021/04/23 08:18:16;;;;;;;7.37;3.07;;;12.70;99.90;;;;;;5069542;27;20445;-79
2021/04/23 08:20:42;;;;;;;6.17;2.90;;;12.70;99.90;;;;;;5030122;28;20552;-80
2021/04/23 08:23:08;;;;;;;7.50;3.60;;;12.90;99.90;;;;;;5030063;28;20502;-80
2021/04/23 08:25:34;;;;;;;6.10;3.30;;;12.80;99.90;;;;;;5029926;28;20539;-80
2021/04/23 08:28:00;;;;;;;5.27;3.90;;;12.90;99.90;;;;;;5029883;28;20500;-80
2021/04/23 08:30:28;;;;;;;4.23;2.67;;;13.10;99.90;;;;;;5029806;28;20503;-81
2021/04/23 08:32:55;;;;;;;6.57;3.20;;;13.20;99.90;;;;;;5029860;28;20506;-81
2021/04/23 08:35:22;;;;;;;7.10;3.03;;;13.10;99.90;;;;;;5029796;28;20463;-81
2021/04/23 08:37:48;;;;;;;4.67;2.80;;;13.20;99.90;;;;;;5029346;28;20464;-81
2021/04/23 08:40:17;;;;;;;6.13;2.50;;;13.30;99.90;;;;;;5028938;28;20963;-84
2021/04/23 08:42:44;;;;;;;6.40;3.67;;;13.10;99.90;;;;;;5037405;28;20808;-80
2021/04/23 08:45:13;;;;;;;8.30;3.67;;;13.00;99.90;;;;;;5028674;28;20477;-81
2021/04/23 08:47:41;;;;;;;7.47;2.93;;;12.90;99.90;;;;;;5029583;28;20445;-81
2021/04/23 08:50:09;;;;;;;8.53;3.97;;;12.80;99.90;;;;;;5029729;28;20564;-80
2021/04/23 08:52:36;;;;;;;8.23;4.23;;;12.80;99.90;;;;;;5029564;28;20453;-80
2021/04/23 08:55:04;;;;;;;7.27;2.90;;;12.70;99.90;;;;;;5029571;28;20493;-80
2021/04/23 08:57:30;;;;;;;10.33;3.80;;;12.40;99.90;;;;;;5029478;28;20510;-80
2021/04/23 08:59:56;;;;;;;5.70;3.40;;;12.00;99.90;;;;;;5029445;28;20492;-80
2021/04/23 09:02:22;;;;;;;6.20;3.10;;;12.20;99.90;;;;;;5029352;28;20477;-80
2021/04/23 09:04:49;;;;;;;9.80;2.87;;;12.40;99.90;;;;;;5029524;28;20888;-80
2021/04/23 09:07:16;;;;;;;11.00;2.87;;;12.70;99.90;;;;;;5029393;28;20460;-80
2021/04/23 09:09:43;;;;;;;5.63;3.37;;;12.80;99.90;;;;;;5029417;28;20534;-80
2021/04/23 09:12:17;;;;;;;5.80;3.30;;;12.80;99.90;;;;;;5029173;28;20500;-80
2021/04/23 09:14:44;;;;;;;6.60;3.00;;;12.90;99.90;;;;;;5029241;28;20543;-80
2021/04/23 09:17:11;;;;;;;6.57;3.20;;;13.00;99.90;;;;;;5029601;28;20595;-80
2021/04/23 09:19:38;;;;;;;5.97;3.17;;;13.00;99.90;;;;;;5029366;28;20500;-81
2021/04/23 09:22:07;;;;;;;7.87;3.60;;;12.80;99.90;;;;;;5029113;28;20481;-80
2021/04/23 09:24:36;;;;;;;8.27;3.13;;;12.80;99.90;;;;;;5029055;28;20808;-80
2021/04/23 09:27:09;;;;;;;6.43;3.40;;;13.00;99.90;;;;;;5029181;28;20485;-80
2021/04/23 09:29:37;;;;;;;6.70;3.23;;;13.10;99.90;;;;;;5029347;28;21006;-80
2021/04/23 09:32:12;;;;;;;8.10;3.30;;;13.30;99.90;;;;;;5029146;28;20449;-80
2021/04/23 09:34:52;;;;;;;5.30;2.60;;;13.30;99.90;;;;;;5029124;28;20543;-80
2021/04/23 09:37:20;;;;;;;10.93;3.07;;;13.20;99.90;;;;;;5029182;28;20703;-80
2021/04/23 09:39:48;;;;;;;4.17;2.63;;;13.00;99.90;;;;;;5029313;28;20492;-80
2021/04/23 09:42:15;;;;;;;5.27;3.07;;;12.80;99.90;;;;;;5029347;28;20483;-80
2021/04/23 09:44:42;;;;;;;12.13;4.07;;;12.40;99.90;;;;;;5028908;28;21072;-82
2021/04/23 09:47:13;;;;;;;10.17;3.50;;;12.10;99.90;;;;;;5028954;28;20453;-81
2021/04/23 09:49:39;;;;;;;7.67;3.43;;;12.00;99.90;;;;;;5029499;28;20473;-82
2021/04/23 09:52:07;;;;;;;6.70;3.13;;;12.00;99.90;;;;;;5032495;28;20630;-82
2021/04/23 09:54:36;;;;;;;6.40;3.17;;;12.00;99.90;;;;;;5032471;28;20481;-82
2021/04/23 09:57:12;;;;;;;7.70;2.80;;;11.90;99.90;;;;;;5032424;28;20424;-82
2021/04/23 09:59:50;;;;;;;8.23;3.27;;;11.90;99.90;;;;;;5032299;28;20484;-82
2021/04/23 10:02:17;;;;;;;9.27;3.47;;;11.90;99.90;;;;;;5031950;28;20481;-82
2021/04/23 10:04:43;;;;;;;5.50;2.63;;;12.20;99.90;;;;;;5031989;28;20989;-82
2021/04/23 10:07:12;;;;;;;8.20;3.57;;;12.60;99.90;;;;;;5032322;28;20477;-82
2021/04/23 10:09:59;;;;;;;6.30;2.60;;;12.50;99.90;;;;;;5032021;28;20477;-82
2021/04/23 10:12:30;;;;;;;4.73;2.57;;;12.30;99.90;;;;;;5031837;28;20536;-82
2021/04/23 10:14:58;;;;;;;9.13;2.70;;;12.20;99.90;;;;;;5031810;28;20510;-81
2021/04/23 10:17:24;;;;;;;5.90;2.80;;;12.30;99.90;;;;;;5032038;28;20449;-82
2021/04/23 10:19:51;;;;;;;6.80;3.20;;;12.50;99.90;;;;;;5032058;28;20965;-82
2021/04/23 10:22:17;;;;;;;7.97;3.50;;;12.60;99.90;;;;;;5031789;28;20489;-89
2021/04/23 10:24:44;;;;;;;5.43;2.50;;;12.70;99.90;;;;;;5031419;28;20477;-88
2021/04/23 10:27:11;;;;;;;3.57;2.87;;;12.80;99.90;;;;;;5032064;28;20853;-88
2021/04/23 10:29:37;;;;;;;5.17;2.80;;;12.90;99.90;;;;;;5031821;28;20946;-82
2021/04/23 10:32:05;;;;;;;6.47;2.47;;;13.10;99.90;;;;;;5031673;28;20865;-82
2021/04/23 10:34:33;;;;;;;4.70;2.40;;;13.30;99.20;;;;;;5031731;28;20520;-82
2021/04/23 10:36:59;;;;;;;6.90;2.60;;;13.40;98.40;;;;;;5031558;28;20449;-82
2021/04/23 10:39:25;;;;;;;4.23;2.20;;;13.50;98.90;;;;;;5031874;28;20594;-81
2021/04/23 10:41:51;;;;;;;4.80;2.20;;;13.70;97.80;;;;;;5031430;28;20492;-82
2021/04/23 10:44:21;;;;;;;3.70;1.97;;;13.80;98.10;;;;;;5031640;28;20449;-82
2021/04/23 10:46:50;;;;;;;5.00;2.30;;;13.70;98.00;;;;;;5031391;28;20469;-82
2021/04/23 10:49:17;;;;;;;7.20;2.20;;;13.60;97.50;;;;;;5031545;28;20544;-82
2021/04/23 10:51:44;;;;;;;7.43;2.40;;;13.70;97.10;;;;;;5031433;28;20460;-82
2021/04/23 10:54:14;;;;;;;4.67;1.93;;;13.70;97.30;;;;;;5031274;28;20966;-82
2021/04/23 10:56:50;;;;;;;5.80;2.40;;;13.90;97.30;;;;;;5030872;28;20474;-82
2021/04/23 10:59:32;;;;;;;10.17;2.77;;;14.00;95.70;;;;;;5029592;28;20445;-82
2021/04/23 11:02:17;;;;;;;6.63;2.50;;;14.00;95.50;;;;;;5028622;28;20549;-82
2021/04/23 11:04:57;;;;;;;5.87;1.80;;;14.10;94.70;;;;;;5030469;28;20997;-82
2021/04/23 11:07:23;;;;;;;4.80;2.37;;;14.20;93.90;;;;;;5030872;28;21017;-82
2021/04/23 11:09:59;;;;;;;6.90;2.23;;;14.40;93.60;;;;;;5031304;28;20571;-82
2021/04/23 11:12:27;;;;;;;2.17;1.97;;;14.60;93.80;;;;;;5030928;28;20453;-82
2021/04/23 11:15:11;;;;;;;3.40;1.67;;;14.70;93.50;;;;;;5031057;28;20452;-82
2021/04/23 11:17:37;;;;;;;2.20;1.33;;;14.80;92.10;;;;;;5031073;28;20495;-82
2021/04/23 11:20:23;;;;;;;5.20;1.87;;;14.80;90.50;;;;;;5031035;28;20453;-82
2021/04/23 11:22:55;;;;;;;4.50;2.00;;;14.70;90.70;;;;;;5030863;28;20460;-82
2021/04/23 11:25:21;;;;;;;3.93;1.83;;;14.60;91.00;;;;;;5030852;28;20955;-82
2021/04/23 11:28:10;;;;;;;5.83;2.10;;;14.20;90.90;;;;;;5031002;28;20791;-81
2021/04/23 11:31:09;;;;;;;2.33;1.80;;;13.90;91.70;;;;;;5030345;28;20485;-82
2021/04/23 11:33:49;;;;;;;3.83;2.13;;;14.00;92.20;;;;;;5034971;28;20863;-81
2021/04/23 11:36:27;;;;;;;5.60;2.03;;;14.10;92.20;;;;;;5029546;28;20445;-82
2021/04/23 11:39:11;;;;;;;6.33;1.53;;;14.00;91.40;;;;;;5030789;28;20449;-81
2021/04/23 11:41:39;;;;;;;4.97;1.70;;;14.10;91.40;;;;;;5030683;28;20453;-82
2021/04/23 11:44:39;;;;;;;5.87;2.80;;;14.20;91.00;;;;;;5030485;28;20446;-81
2021/04/23 11:47:07;;;;;;;4.80;2.20;;;14.10;91.20;;;;;;5030650;28;20453;-82
2021/04/23 11:49:33;;;;;;;3.40;1.90;;;14.20;90.90;;;;;;5030356;28;20457;-82
2021/04/23 11:52:01;;;;;;;4.03;1.80;;;14.00;90.70;;;;;;5030683;28;20449;-82
2021/04/23 11:54:33;;;;;;;5.07;1.93;;;13.90;90.90;;;;;;5030456;28;20453;-82
2021/04/23 11:57:01;;;;;;;3.43;1.57;;;13.80;90.70;;;;;;5030198;28;20450;-81
2021/04/23 11:59:28;;;;;;;3.57;1.93;;;13.70;90.00;;;;;;5030197;28;21018;-82
2021/04/23 12:01:54;;;;;;;3.07;1.60;;;13.80;89.10;;;;;;5030173;28;20836;-82
2021/04/23 12:04:40;;;;;;;6.80;2.07;;;13.90;90.30;;;;;;5030275;28;20488;-82
2021/04/23 12:07:06;;;;;;;4.67;1.60;;;14.20;90.20;;;;;;5030196;28;20781;-82
2021/04/23 12:09:32;;;;;;;1.67;1.40;;;14.20;88.70;;;;;;5042008;27;20453;-81
2021/04/23 12:12:04;;;;;;;3.87;1.70;;;14.20;88.60;;;;;;5087921;27;20483;-82
2021/04/23 12:14:44;;;;;;;3.00;1.77;;;14.10;88.80;;;;;;5068430;27;20536;-82
2021/04/23 12:17:11;;;;;;;3.67;1.73;;;14.00;88.60;;;;;;5029939;28;20428;-82
2021/04/23 12:19:38;;;;;;;3.10;1.80;;;14.00;89.10;;;;;;5131662;27;20476;-83
2021/04/23 12:22:05;;;;;;;4.10;1.87;;;13.80;85.30;;;;;;5133929;27;20476;-83
2021/04/23 12:24:31;;;;;;;2.53;1.70;;;13.60;84.40;;;;;;5133706;27;20476;-83
2021/04/23 12:26:58;;;;;;;2.63;1.47;;;13.40;84.10;;;;;;5125827;27;20449;-80
2021/04/23 12:29:25;;;;;;;5.13;1.80;;;13.40;85.00;;;;;;5133533;27;20484;-83
2021/04/23 12:31:52;;;;;;;3.63;2.53;;;13.60;85.20;;;;;;5132974;27;20475;-81
2021/04/23 12:34:18;;;;;;;2.53;1.70;;;13.70;86.20;;;;;;5058917;27;20839;-82
2021/04/23 12:36:45;;;;;;;4.93;1.67;;;13.90;86.20;;;;;;5028542;28;20480;-82
2021/04/23 12:39:15;;;;;;;3.40;1.50;;;14.20;85.70;;;;;;5029816;28;20557;-82
2021/04/23 12:41:43;;;;;;;4.67;1.60;;;14.40;82.80;;;;;;5030038;28;20453;-82
2021/04/23 12:44:12;;;;;;;2.30;1.43;;;14.60;83.20;;;;;;5029812;28;20548;-81
2021/04/23 12:46:40;;;;;;;7.13;1.70;;;14.80;83.10;;;;;;5029698;28;20540;-81
2021/04/23 12:49:13;;;;;;;4.77;2.03;;;15.00;79.90;;;;;;5029745;28;20490;-81
2021/04/23 12:51:43;;;;;;;4.10;2.07;;;15.10;77.40;;;;;;5029750;28;20490;-81
2021/04/23 12:54:09;;;;;;;3.00;1.70;;;15.10;78.30;;;;;;5029647;28;20492;-81
2021/04/23 12:56:36;;;;;;;3.33;1.30;;;15.30;77.00;;;;;;5029558;28;20453;-81